createdAt,value
2023-03-04T00:02:06.558Z,82.08
2023-03-04T00:05:09.962Z,82.37
2023-03-04T00:08:12.697Z,82.31
2023-03-04T00:11:15.466Z,82.48
2023-03-04T00:14:18.186Z,82.20
2023-03-04T00:17:22.427Z,82.55
2023-03-04T00:20:25.309Z,82.46
2023-03-04T00:23:27.983Z,82.68
2023-03-04T00:26:30.676Z,82.69
2023-03-04T00:29:33.453Z,82.69
2023-03-04T00:32:37.822Z,82.88
2023-03-04T00:35:42.050Z,82.74
2023-03-04T00:38:44.804Z,82.83
2023-03-04T00:41:47.506Z,83.40
2023-03-04T00:44:51.416Z,83.18
2023-03-04T00:47:55.494Z,83.27
2023-03-04T00:50:58.214Z,83.37
2023-03-04T00:54:01.147Z,83.23
2023-03-04T00:57:03.982Z,83.35
2023-03-04T01:00:07.985Z,83.70
2023-03-04T01:03:12.103Z,83.64
2023-03-04T01:06:15.576Z,83.64
2023-03-04T01:09:18.330Z,83.57
2023-03-04T01:12:20.998Z,83.56
2023-03-04T01:15:24.146Z,83.65
2023-03-04T01:18:28.373Z,83.57
2023-03-04T01:21:31.211Z,83.96
2023-03-04T01:24:33.924Z,84.02
2023-03-04T01:27:36.784Z,84.29
2023-03-04T01:30:39.637Z,84.66
2023-03-04T01:33:43.772Z,84.83
2023-03-04T01:36:46.439Z,84.41
2023-03-04T01:39:49.177Z,84.27
2023-03-04T01:42:52.081Z,83.70
2023-03-04T01:45:56.654Z,83.36
2023-03-04T01:49:01.877Z,83.83
2023-03-04T01:52:05.898Z,83.08
2023-03-04T01:55:16.574Z,82.91
2023-03-04T01:58:19.271Z,83.29
2023-03-04T02:01:21.981Z,82.89
2023-03-04T02:04:28.284Z,82.92
2023-03-04T02:07:31.477Z,82.72
2023-03-04T02:10:35.036Z,82.78
2023-03-04T02:13:37.913Z,83.04
2023-03-04T02:16:41.002Z,83.01
2023-03-04T02:19:52.208Z,82.96
2023-03-04T02:23:02.712Z,83.01
2023-03-04T02:26:18.733Z,82.92
2023-03-04T02:29:21.654Z,82.67
2023-03-04T02:32:24.436Z,82.53
2023-03-04T02:35:27.342Z,82.65
2023-03-04T02:38:30.149Z,82.57
2023-03-04T02:41:34.827Z,82.17
2023-03-04T02:44:39.288Z,82.27
2023-03-04T02:47:42.080Z,81.94
2023-03-04T02:50:48.046Z,82.09
2023-03-04T02:53:50.755Z,82.01
2023-03-04T02:56:56.442Z,81.91
2023-03-04T02:59:59.127Z,81.64
2023-03-04T03:03:02.131Z,81.53
2023-03-04T03:06:05.359Z,81.39
2023-03-04T03:09:08.839Z,81.43
2023-03-04T03:12:12.862Z,81.60
2023-03-04T03:15:16.035Z,81.38
2023-03-04T03:18:18.732Z,81.26
2023-03-04T03:21:21.427Z,81.01
2023-03-04T03:24:24.149Z,80.99
2023-03-04T03:27:28.133Z,80.98
2023-03-04T03:30:31.292Z,81.09
2023-03-04T03:33:34.625Z,80.96
2023-03-04T03:36:37.369Z,80.90
2023-03-04T03:39:40.223Z,81.03
2023-03-04T03:42:44.391Z,80.91
2023-03-04T03:45:47.249Z,80.87
2023-03-04T03:48:49.983Z,80.97
2023-03-04T03:51:52.763Z,80.73
2023-03-04T03:54:55.460Z,80.97
2023-03-04T03:57:59.525Z,80.79
2023-03-04T04:01:02.204Z,80.87
2023-03-04T04:04:05.096Z,80.73
2023-03-04T04:07:07.789Z,80.84
2023-03-04T04:10:12.213Z,80.51
2023-03-04T04:13:16.220Z,80.77
2023-03-04T04:16:18.936Z,80.96
2023-03-04T04:19:22.304Z,80.74
2023-03-04T04:22:25.166Z,80.80
2023-03-04T04:25:27.946Z,80.67
2023-03-04T04:28:31.999Z,80.99
2023-03-04T04:31:35.451Z,80.81
2023-03-04T04:34:38.183Z,81.02
2023-03-04T04:37:40.861Z,81.01
2023-03-04T04:40:43.964Z,80.82
2023-03-04T04:43:48.362Z,80.89
2023-03-04T04:46:51.077Z,80.66
2023-03-04T04:49:54.120Z,80.69
2023-03-04T04:52:57.098Z,80.81
2023-03-04T04:55:59.803Z,80.81
2023-03-04T04:59:07.666Z,80.72
2023-03-04T05:02:10.714Z,81.07
2023-03-04T05:05:13.468Z,80.82
2023-03-04T05:08:16.144Z,80.69
2023-03-04T05:11:19.792Z,80.98
2023-03-04T05:14:23.894Z,80.71
2023-03-04T05:17:26.690Z,80.83
2023-03-04T05:20:29.389Z,81.03
2023-03-04T05:23:34.528Z,80.85
2023-03-04T05:26:37.375Z,80.81
2023-03-04T05:29:42.740Z,80.71
2023-03-04T05:32:45.450Z,80.89
2023-03-04T05:35:48.765Z,80.97
2023-03-04T05:38:51.736Z,80.76
2023-03-04T05:41:54.411Z,80.75
2023-03-04T05:44:58.413Z,80.90
2023-03-04T05:48:02.425Z,80.90
2023-03-04T05:51:05.501Z,80.84
2023-03-04T05:54:08.414Z,81.07
2023-03-04T05:57:11.108Z,80.66
2023-03-04T06:00:17.429Z,80.83
2023-03-04T06:03:23.054Z,80.81
2023-03-04T06:06:25.774Z,80.40
2023-03-04T06:09:28.788Z,80.65
2023-03-04T06:12:31.450Z,80.93
2023-03-04T06:15:35.711Z,80.78
2023-03-04T06:18:38.377Z,80.79
2023-03-04T06:21:41.181Z,81.08
2023-03-04T06:24:43.879Z,80.77
2023-03-04T06:27:46.620Z,80.92
2023-03-04T06:30:53.278Z,81.03
2023-03-04T06:33:55.989Z,80.84
2023-03-04T06:36:58.655Z,80.94
2023-03-04T06:40:01.948Z,80.83
2023-03-04T06:43:04.646Z,80.88
2023-03-04T06:46:09.934Z,80.99
2023-03-04T06:49:12.644Z,80.66
2023-03-04T06:52:15.353Z,80.90
2023-03-04T06:55:18.217Z,80.82
2023-03-04T06:58:20.908Z,80.87
2023-03-04T07:01:26.731Z,80.71
2023-03-04T07:04:29.538Z,80.90
2023-03-04T07:07:32.236Z,80.70
2023-03-04T07:10:35.230Z,80.45
2023-03-04T07:13:38.496Z,80.83
2023-03-04T07:16:42.593Z,80.52
2023-03-04T07:19:46.160Z,80.92
2023-03-04T07:22:48.851Z,80.68
2023-03-04T07:25:52.144Z,80.38
2023-03-04T07:28:57.255Z,80.49
2023-03-04T07:32:01.469Z,80.43
2023-03-04T07:35:04.658Z,80.41
2023-03-04T07:38:07.548Z,80.09
2023-03-04T07:41:10.243Z,80.08
2023-03-04T07:44:13.579Z,79.93
2023-03-04T07:47:17.645Z,79.89
2023-03-04T07:50:20.586Z,80.14
2023-03-04T07:53:23.303Z,79.78
2023-03-04T07:56:28.168Z,79.73
2023-03-04T07:59:30.952Z,79.42
2023-03-04T08:02:35.098Z,79.06
2023-03-04T08:05:40.327Z,79.41
2023-03-04T08:08:44.005Z,79.49
2023-03-04T08:11:46.762Z,79.41
2023-03-04T08:14:49.688Z,79.11
2023-03-04T08:17:53.773Z,79.05
2023-03-04T08:20:56.838Z,79.06
2023-03-04T08:24:02.521Z,78.99
2023-03-04T08:27:05.848Z,78.87
2023-03-04T08:30:10.023Z,79.48
2023-03-04T08:33:14.077Z,80.80
2023-03-04T08:36:17.031Z,81.31
2023-03-04T08:39:20.480Z,81.44
2023-03-04T08:42:24.158Z,81.61
2023-03-04T08:45:26.857Z,81.14
2023-03-04T08:48:30.965Z,81.38
2023-03-04T08:51:35.864Z,80.91
2023-03-04T08:54:38.546Z,80.76
2023-03-04T08:57:41.619Z,81.37
2023-03-04T09:00:48.338Z,80.96
2023-03-04T09:03:52.705Z,81.06
2023-03-04T09:06:55.484Z,81.21
2023-03-04T09:09:58.274Z,80.00
2023-03-04T09:13:01.756Z,79.91
2023-03-04T09:16:05.013Z,79.56
2023-03-04T09:19:09.044Z,79.11
2023-03-04T09:22:11.809Z,78.61
2023-03-04T09:25:16.209Z,78.08
2023-03-04T09:28:20.101Z,77.67
2023-03-04T09:31:23.722Z,77.35
2023-03-04T09:34:27.810Z,76.71
2023-03-04T09:37:30.620Z,76.59
2023-03-04T09:40:38.848Z,76.02
2023-03-04T09:43:45.444Z,75.89
2023-03-04T09:46:49.601Z,75.43
2023-03-04T09:49:58.364Z,75.09
2023-03-04T09:53:10.417Z,75.02
2023-03-04T09:56:14.978Z,74.65
2023-03-04T09:59:26.184Z,74.21
2023-03-04T10:02:40.874Z,73.50
2023-03-04T10:05:52.168Z,73.03
2023-03-04T10:09:00.733Z,72.48
2023-03-04T10:12:07.490Z,71.79
2023-03-04T10:15:24.321Z,71.57
2023-03-04T10:18:33.670Z,70.57
2023-03-04T10:21:42.667Z,70.09
2023-03-04T10:24:47.633Z,69.86
2023-03-04T10:27:52.829Z,69.56
2023-03-04T10:31:00.766Z,68.81
2023-03-04T10:34:04.924Z,68.63
2023-03-04T10:37:10.082Z,67.81
2023-03-04T10:40:20.819Z,67.50
2023-03-04T10:43:23.476Z,66.81
2023-03-04T10:46:26.676Z,66.38
2023-03-04T10:49:31.137Z,65.55
2023-03-04T10:52:39.597Z,65.03
2023-03-04T10:55:46.530Z,64.00
2023-03-04T10:58:49.316Z,63.95
2023-03-04T11:01:54.712Z,63.10
2023-03-04T11:05:07.493Z,61.78
2023-03-04T11:08:18.865Z,62.33
2023-03-04T11:11:29.913Z,61.88
2023-03-04T11:14:39.321Z,61.33
2023-03-04T11:17:46.410Z,61.35
2023-03-04T11:20:51.810Z,60.67
2023-03-04T11:23:59.915Z,60.90
2023-03-04T11:27:07.419Z,60.19
2023-03-04T11:30:30.212Z,60.26
2023-03-04T11:33:43.068Z,59.86
2023-03-04T11:36:55.468Z,59.92
2023-03-04T11:40:03.619Z,57.52
2023-03-04T11:43:13.559Z,59.27
2023-03-04T11:46:41.238Z,59.21
2023-03-04T11:50:01.989Z,59.69
2023-03-04T11:53:32.487Z,59.90
2023-03-04T11:56:43.296Z,58.88
2023-03-04T12:00:04.977Z,58.42
2023-03-04T12:03:28.217Z,59.30
2023-03-04T12:06:41.320Z,58.93
2023-03-04T12:09:57.193Z,59.24
2023-03-04T12:13:41.125Z,57.42
2023-03-04T12:17:03.169Z,58.77
2023-03-04T12:20:42.239Z,59.57
2023-03-04T12:24:29.564Z,58.84
2023-03-04T12:27:40.941Z,58.85
2023-03-04T12:30:56.214Z,59.09
2023-03-04T12:34:20.586Z,59.04
2023-03-04T12:37:39.839Z,59.56
2023-03-04T12:40:51.398Z,58.64
2023-03-04T12:44:00.828Z,57.95
2023-03-04T12:47:20.037Z,58.66
2023-03-04T12:50:38.400Z,59.16
2023-03-04T12:53:47.922Z,59.39
2023-03-04T12:56:54.717Z,59.70
2023-03-04T13:00:07.392Z,59.43
2023-03-04T13:03:20.031Z,59.20
2023-03-04T13:06:35.429Z,59.51
2023-03-04T13:09:47.725Z,59.91
2023-03-04T13:12:52.237Z,59.65
2023-03-04T13:16:04.821Z,59.27
2023-03-04T13:19:40.734Z,59.37
2023-03-04T13:22:47.942Z,59.42
2023-03-04T13:26:09.386Z,57.73
2023-03-04T13:29:34.449Z,58.33
2023-03-04T13:32:39.476Z,57.05
2023-03-04T13:35:49.164Z,57.96
2023-03-04T13:39:01.951Z,57.31
2023-03-04T13:42:26.105Z,58.01
2023-03-04T13:45:35.370Z,58.21
2023-03-04T13:48:38.650Z,58.45
2023-03-04T13:51:45.496Z,56.52
2023-03-04T13:54:49.562Z,56.46
2023-03-04T13:57:52.605Z,56.35
2023-03-04T14:00:57.097Z,57.03
2023-03-04T14:04:00.382Z,57.26
2023-03-04T14:07:05.375Z,56.57
2023-03-04T14:10:23.195Z,56.53
2023-03-04T14:13:27.664Z,56.76
2023-03-04T14:16:35.965Z,56.46
2023-03-04T14:19:44.815Z,56.93
2023-03-04T14:22:47.531Z,56.67
2023-03-04T14:25:51.598Z,56.54
2023-03-04T14:28:57.347Z,56.49
2023-03-04T14:32:02.224Z,56.11
2023-03-04T14:35:08.542Z,55.48
2023-03-04T14:38:21.982Z,55.99
2023-03-04T14:41:30.902Z,55.96
2023-03-04T14:44:37.940Z,55.44
2023-03-04T14:47:45.325Z,56.07
2023-03-04T14:50:51.453Z,55.81
2023-03-04T14:53:56.095Z,55.88
2023-03-04T14:57:23.839Z,54.59
2023-03-04T15:00:30.214Z,54.89
2023-03-04T15:03:33.761Z,54.64
2023-03-04T15:06:39.714Z,54.27
2023-03-04T15:09:42.625Z,55.27
2023-03-04T15:12:53.077Z,56.01
2023-03-04T15:16:02.245Z,56.00
2023-03-04T15:19:07.440Z,55.91
2023-03-04T15:22:10.637Z,55.92
2023-03-04T15:25:15.237Z,56.20
2023-03-04T15:28:20.229Z,56.56
2023-03-04T15:31:25.834Z,56.69
2023-03-04T15:34:28.563Z,56.93
2023-03-04T15:37:31.389Z,56.97
2023-03-04T15:40:38.370Z,56.76
2023-03-04T15:43:42.546Z,57.14
2023-03-04T15:46:45.500Z,57.65
2023-03-04T15:49:48.177Z,57.71
2023-03-04T15:52:51.578Z,57.85
2023-03-04T15:55:55.007Z,56.05
2023-03-04T15:59:02.203Z,56.64
2023-03-04T16:02:12.537Z,57.20
2023-03-04T16:05:16.145Z,57.31
2023-03-04T16:08:21.898Z,56.71
2023-03-04T16:11:27.968Z,57.59
2023-03-04T16:14:32.560Z,58.21
2023-03-04T16:17:35.317Z,58.45
2023-03-04T16:20:39.208Z,58.82
2023-03-04T16:23:44.246Z,59.26
2023-03-04T16:26:47.744Z,59.31
2023-03-04T16:29:51.759Z,59.34
2023-03-04T16:32:56.382Z,59.79
2023-03-04T16:36:04.621Z,59.52
2023-03-04T16:39:15.296Z,59.76
2023-03-04T16:42:19.349Z,59.54
2023-03-04T16:45:26.248Z,59.80
2023-03-04T16:48:29.126Z,60.12
2023-03-04T16:51:37.114Z,59.96
2023-03-04T16:54:40.326Z,60.05
2023-03-04T16:57:43.129Z,59.96
2023-03-04T17:00:47.208Z,60.46
2023-03-04T17:03:49.918Z,60.62
2023-03-04T17:06:52.609Z,60.74
2023-03-04T17:09:55.273Z,60.81
2023-03-04T17:12:58.070Z,60.83
2023-03-04T17:16:03.370Z,60.93
2023-03-04T17:19:06.171Z,61.54
2023-03-04T17:22:08.855Z,61.24
2023-03-04T17:25:12.608Z,61.40
2023-03-04T17:28:15.276Z,61.57
2023-03-04T17:31:21.246Z,61.74
2023-03-04T17:34:23.927Z,61.86
2023-03-04T17:37:26.769Z,62.01
2023-03-04T17:40:29.789Z,61.83
2023-03-04T17:43:32.487Z,62.18
2023-03-04T17:46:36.624Z,62.09
2023-03-04T17:49:39.320Z,62.55
2023-03-04T17:52:42.037Z,62.39
2023-03-04T17:55:50.178Z,62.50
2023-03-04T17:58:52.957Z,62.60
2023-03-04T18:01:57.208Z,62.90
2023-03-04T18:05:00.613Z,62.59
2023-03-04T18:08:04.550Z,62.62
2023-03-04T18:11:07.478Z,62.88
2023-03-04T18:14:12.659Z,63.17
2023-03-04T18:17:17.607Z,63.06
2023-03-04T18:20:20.542Z,63.16
2023-03-04T18:23:23.435Z,63.51
2023-03-04T18:26:26.877Z,63.22
2023-03-04T18:29:29.666Z,63.39
2023-03-04T18:32:49.467Z,63.80
2023-03-04T18:35:59.635Z,63.62
2023-03-04T18:39:04.603Z,63.89
2023-03-04T18:42:07.326Z,63.92
2023-03-04T18:45:11.586Z,63.94
2023-03-04T18:48:15.625Z,63.90
2023-03-04T18:51:18.335Z,64.33
2023-03-04T18:54:21.112Z,64.09
2023-03-04T18:57:23.917Z,64.54
2023-03-04T19:00:26.862Z,64.35
2023-03-04T19:03:32.057Z,64.63
2023-03-04T19:06:35.391Z,65.02
2023-03-04T19:09:38.046Z,64.78
2023-03-04T19:12:40.744Z,64.91
2023-03-04T19:15:43.403Z,65.07
2023-03-04T19:18:47.536Z,64.92
2023-03-04T19:21:50.409Z,65.10
2023-03-04T19:24:53.357Z,65.15
2023-03-04T19:27:56.462Z,65.22
2023-03-04T19:30:59.508Z,65.78
2023-03-04T19:34:03.663Z,65.51
2023-03-04T19:37:06.305Z,65.41
2023-03-04T19:40:10.657Z,65.27
2023-03-04T19:43:13.938Z,65.50
2023-03-04T19:46:16.689Z,65.32
2023-03-04T19:49:20.901Z,65.49
2023-03-04T19:52:23.555Z,65.23
2023-03-04T19:55:26.291Z,65.70
2023-03-04T19:58:29.018Z,65.80
2023-03-04T20:01:33.650Z,66.08
2023-03-04T20:04:38.022Z,66.15
2023-03-04T20:07:40.861Z,66.40
2023-03-04T20:10:43.702Z,66.62
2023-03-04T20:13:46.422Z,66.53
2023-03-04T20:16:49.798Z,66.58
2023-03-04T20:19:53.826Z,66.68
2023-03-04T20:22:56.523Z,66.65
2023-03-04T20:25:59.333Z,66.53
2023-03-04T20:29:02.174Z,66.85
2023-03-04T20:32:05.473Z,66.76
2023-03-04T20:35:14.129Z,66.99
2023-03-04T20:38:16.807Z,67.07
2023-03-04T20:41:19.729Z,67.58
2023-03-04T20:44:22.427Z,67.83
2023-03-04T20:47:25.109Z,68.44
2023-03-04T20:50:29.332Z,68.44
2023-03-04T20:53:32.067Z,68.48
2023-03-04T20:56:35.818Z,68.36
2023-03-04T20:59:39.501Z,68.36
2023-03-04T21:02:42.311Z,68.34
2023-03-04T21:05:46.334Z,68.28
2023-03-04T21:08:49.003Z,68.72
2023-03-04T21:11:51.856Z,68.93
2023-03-04T21:14:54.608Z,68.75
2023-03-04T21:17:57.761Z,69.04
2023-03-04T21:21:01.745Z,69.16
2023-03-04T21:24:04.995Z,69.04
2023-03-04T21:27:17.990Z,69.18
2023-03-04T21:30:20.776Z,69.33
2023-03-04T21:33:31.127Z,69.43
2023-03-04T21:36:35.258Z,69.00
2023-03-04T21:39:38.053Z,69.22
2023-03-04T21:42:42.195Z,69.32
2023-03-04T21:45:54.908Z,69.18
2023-03-04T21:48:57.639Z,69.19
2023-03-04T21:52:03.474Z,69.04
2023-03-04T21:55:09.156Z,69.02
2023-03-04T21:58:11.893Z,69.08
2023-03-04T22:01:16.948Z,69.19
2023-03-04T22:04:19.777Z,68.98
2023-03-04T22:07:23.861Z,69.37
2023-03-04T22:10:26.728Z,69.30
2023-03-04T22:13:29.377Z,69.08
2023-03-04T22:16:37.471Z,69.20
2023-03-04T22:19:42.591Z,69.24
2023-03-04T22:22:46.698Z,69.26
2023-03-04T22:25:49.438Z,69.30
2023-03-04T22:28:52.219Z,69.37
2023-03-04T22:31:58.322Z,69.16
2023-03-04T22:35:02.143Z,69.42
2023-03-04T22:38:09.257Z,69.48
2023-03-04T22:41:16.293Z,69.64
2023-03-04T22:44:19.169Z,70.05
2023-03-04T22:47:22.529Z,70.14
2023-03-04T22:50:27.963Z,70.27
2023-03-04T22:53:32.188Z,70.45
2023-03-04T22:56:36.535Z,70.29
2023-03-04T22:59:40.295Z,70.38
2023-03-04T23:02:43.832Z,70.55
2023-03-04T23:05:46.634Z,70.73
2023-03-04T23:08:51.269Z,70.99
2023-03-04T23:11:54.873Z,71.06
2023-03-04T23:14:58.856Z,71.36
2023-03-04T23:18:01.622Z,71.66
2023-03-04T23:21:06.638Z,71.58
2023-03-04T23:24:14.677Z,72.18
2023-03-04T23:27:18.283Z,71.69
2023-03-04T23:30:30.640Z,71.63
2023-03-04T23:33:35.808Z,71.69
2023-03-04T23:36:38.638Z,71.82
2023-03-04T23:39:42.738Z,71.67
2023-03-04T23:42:45.425Z,71.83
2023-03-04T23:45:48.181Z,71.81
2023-03-04T23:48:51.345Z,72.01
2023-03-04T23:51:54.007Z,71.89
2023-03-04T23:54:58.679Z,72.22
2023-03-04T23:58:04.711Z,72.15
